Fecha, hora, temperatura, viento dirección y velocidad, humedad y presión.

  • 12-12-2018 17:00:00 | 16.00°C | Este |6.00 km/h | 77.00% | 1016.20 hPa
  • 12-12-2018 16:00:00 | 16.70°C | Sudeste |9.00 km/h | 74.00% | 1016.20 hPa
  • 12-12-2018 15:00:00 | 17.50°C | Sudeste |9.00 km/h | 70.00% | 1016.20 hPa
  • 12-12-2018 13:00:00 | 0.00°C | 0 |0.00 km/h | 0.00% | 0.00 hPa
  • 12-12-2018 12:00:00 | 17.40°C | Noroeste |6.00 km/h | 66.00% | 1018.30 hPa
  • 12-12-2018 12:00:00 | 17.40°C | Noroeste |6.00 km/h | 66.00% | 1018.30 hPa
  • 12-12-2018 11:00:00 | 16.50°C | Noroeste |7.00 km/h | 70.00% | 1018.70 hPa
  • 12-12-2018 10:00:00 | 15.50°C | Noroeste |8.00 km/h | 76.00% | 1018.60 hPa
  • 12-12-2018 09:00:00 | 13.20°C | Noroeste |13.00 km/h | 87.00% | 1018.20 hPa
  • 12-12-2018 08:00:00 | 11.50°C | Sur |2.00 km/h | 84.00% | 1017.40 hPa
  • 12-12-2018 06:00:00 | 11.80°C | Noroeste |4.00 km/h | 87.00% | 1016.80 hPa
  • 12-12-2018 05:00:00 | 12.60°C | Oeste |10.00 km/h | 88.00% | 1017.30 hPa
  • 12-12-2018 04:00:00 | 14.50°C | Oeste |17.00 km/h | 86.00% | 1017.20 hPa
  • 12-12-2018 03:00:00 | 15.00°C | Sudoeste |20.00 km/h | 85.00% | 1017.30 hPa
  • 12-12-2018 02:00:00 | 15.20°C | Sudoeste |23.00 km/h | 84.00% | 1017.30 hPa
  • 12-12-2018 01:00:00 | 15.30°C | Sudoeste |21.00 km/h | 82.00% | 1017.70 hPa
  • 12-12-2018 00:00:00 | 15.40°C | Sudoeste |21.00 km/h | 80.00% | 1018.10 hPa
  • 11-12-2018 23:00:00 | 15.20°C | Sudoeste |23.00 km/h | 79.00% | 1018.40 hPa
  • 11-12-2018 22:00:00 | 14.90°C | Sudoeste |21.00 km/h | 79.00% | 1018.60 hPa
  • 11-12-2018 21:00:00 | 14.70°C | Sudoeste |17.00 km/h | 77.00% | 1018.80 hPa
  • 11-12-2018 20:00:00 | 14.60°C | Sudoeste |19.00 km/h | 80.00% | 1018.80 hPa
  • 11-12-2018 19:00:00 | 14.80°C | Sudoeste |14.00 km/h | 78.00% | 1018.70 hPa
  • 11-12-2018 18:00:00 | 14.80°C | Sur |12.00 km/h | 78.00% | 1018.80 hPa
  • 11-12-2018 17:00:00 | 15.40°C | Sudoeste |13.00 km/h | 75.00% | 1019.00 hPa
    • diseño web asturias Información sobre el estado de las mareas, altura de la marejada, temperatura del agua y otros datos de Gijón en Asturias.

      Surf Gijón